Time;durP1;ratioP1;P1;durP2;ratioP2;P2;SDS_P1;SDS_P2;PMS_P1;PMS_P2;Temp;Humidity;BMP_temperature;BMP_pressure;BME280_temperature;BME280_humidity;BME280_pressure;Samples;Min_cycle;Max_cycle;Signal;HPM_P1;HPM_P2
2021/06/07 00:00:45;;;;;;;21.23;18.87;;;21.00;54.90;;;;;;6317210;22;20374;-90
2021/06/07 00:03:11;;;;;;;20.33;18.13;;;21.00;54.80;;;;;;6317580;22;20158;-90
2021/06/07 00:05:38;;;;;;;22.27;20.07;;;21.00;55.00;;;;;;6318224;22;20393;-90
2021/06/07 00:08:04;;;;;;;20.17;18.30;;;21.00;54.80;;;;;;6317805;22;20178;-89
2021/06/07 00:10:30;;;;;;;22.73;20.63;;;21.00;54.70;;;;;;6317919;22;20699;-90
2021/06/07 00:13:12;;;;;;;22.20;19.90;;;20.70;54.70;;;;;;6318093;22;20256;-90
2021/06/07 00:15:38;;;;;;;21.03;18.83;;;21.00;55.20;;;;;;6317958;22;20844;-88
2021/06/07 00:18:04;;;;;;;21.33;19.23;;;21.00;55.20;;;;;;6316716;22;20374;-88
2021/06/07 00:21:20;;;;;;;22.27;20.27;;;20.60;54.70;;;;;;6317528;22;20457;-88
2021/06/07 00:23:48;;;;;;;21.47;19.40;;;21.00;55.10;;;;;;6317258;22;20374;-88
2021/06/07 00:26:14;;;;;;;19.87;17.97;;;20.90;55.40;;;;;;6316667;22;20374;-91
2021/06/07 00:28:39;;;;;;;20.17;18.27;;;21.10;55.20;;;;;;6316011;22;20414;-89
2021/06/07 00:31:14;;;;;;;21.13;19.10;;;21.00;54.90;;;;;;6317062;22;20412;-90
2021/06/07 00:33:40;;;;;;;20.70;18.73;;;21.10;54.60;;;;;;6316688;22;20139;-89
2021/06/07 00:36:29;;;;;;;23.57;21.17;;;20.90;54.30;;;;;;6317432;22;20388;-87
2021/06/07 00:38:55;;;;;;;23.13;20.87;;;21.10;54.30;;;;;;6316845;22;20148;-91
2021/06/07 00:41:30;;;;;;;23.57;21.17;;;21.00;54.30;;;;;;6317226;22;20469;-88
2021/06/07 00:43:58;;;;;;;20.97;18.90;;;21.00;54.60;;;;;;6317366;22;20866;-88
2021/06/07 00:46:40;;;;;;;22.07;19.50;;;20.90;54.70;;;;;;6313958;22;20370;-88
2021/06/07 00:49:07;;;;;;;22.93;20.70;;;20.90;54.90;;;;;;6316533;22;20755;-88
2021/06/07 00:51:48;;;;;;;24.30;21.80;;;20.90;54.70;;;;;;6316568;22;20393;-87
2021/06/07 00:54:15;;;;;;;24.93;22.43;;;21.00;54.70;;;;;;6316032;22;20404;-90
2021/06/07 00:56:41;;;;;;;25.47;22.50;;;20.80;55.00;;;;;;6316513;22;20456;-88
2021/06/07 00:59:07;;;;;;;25.97;23.40;;;20.90;55.10;;;;;;6316388;22;20403;-87
2021/06/07 01:01:33;;;;;;;26.10;21.27;;;20.90;55.00;;;;;;6344005;22;20358;-88
2021/06/07 01:04:17;;;;;;;25.47;22.60;;;20.90;54.80;;;;;;6316614;22;20412;-88
2021/06/07 01:06:42;;;;;;;27.03;24.00;;;20.90;54.90;;;;;;6316881;22;20481;-88
2021/06/07 01:09:09;;;;;;;22.60;20.30;;;20.80;55.30;;;;;;6316124;22;20449;-88
2021/06/07 01:11:59;;;;;;;24.33;21.20;;;20.70;55.50;;;;;;6317005;22;20524;-87
2021/06/07 01:14:24;;;;;;;25.43;22.77;;;20.80;55.70;;;;;;6317183;22;20709;-89
2021/06/07 01:16:50;;;;;;;24.07;21.67;;;20.80;55.40;;;;;;6316968;22;20373;-89
2021/06/07 01:19:18;;;;;;;21.83;19.73;;;20.50;55.10;;;;;;6317489;22;20151;-89
2021/06/07 01:22:19;;;;;;;24.43;21.97;;;20.90;55.20;;;;;;6316878;22;20144;-89
2021/06/07 01:24:44;;;;;;;22.77;20.33;;;20.90;54.80;;;;;;6317174;22;20378;-88
2021/06/07 02:00:52;;;;;;;32.00;25.37;;;20.50;55.60;;;;;;6265593;22;20461;-91
2021/06/07 02:03:20;;;;;;;28.00;22.90;;;20.50;56.30;;;;;;6190398;23;20404;-92
2021/06/07 02:05:49;;;;;;;31.40;26.33;;;20.30;56.50;;;;;;6190460;22;20508;-89
2021/06/07 02:08:16;;;;;;;26.60;23.77;;;20.20;56.90;;;;;;6189142;23;20400;-87
2021/06/07 02:10:49;;;;;;;26.87;23.77;;;20.30;56.80;;;;;;6189324;23;20386;-87
2021/06/07 02:13:15;;;;;;;26.20;23.17;;;19.90;56.50;;;;;;6189258;23;20464;-87
2021/06/07 02:15:41;;;;;;;24.63;22.10;;;20.40;56.70;;;;;;6189170;23;20359;-87
2021/06/07 02:18:10;;;;;;;23.30;21.00;;;20.50;56.40;;;;;;6188657;23;20377;-88
2021/06/07 02:20:37;;;;;;;26.33;23.53;;;20.50;56.20;;;;;;6189144;23;20430;-88
2021/06/07 02:23:02;;;;;;;27.20;22.20;;;20.20;55.70;;;;;;6190907;23;20852;-89
2021/06/07 02:25:28;;;;;;;30.17;22.27;;;20.70;55.90;;;;;;6189565;23;20412;-88
2021/06/07 02:27:54;;;;;;;25.33;20.07;;;20.70;55.80;;;;;;6190048;22;20485;-88
2021/06/07 02:30:24;;;;;;;24.10;21.17;;;20.70;55.50;;;;;;6191464;22;20151;-89
2021/06/07 02:32:52;;;;;;;27.13;21.57;;;20.80;55.00;;;;;;6191697;23;20862;-88
2021/06/07 02:35:21;;;;;;;26.33;22.57;;;20.80;54.70;;;;;;6191368;22;20400;-88
2021/06/07 02:37:50;;;;;;;21.13;19.00;;;20.90;54.30;;;;;;6190182;23;20442;-89
2021/06/07 02:43:38;;;;;;;30.90;24.00;;;20.90;54.30;;;;;;6217523;23;20391;-89
2021/06/07 02:49:26;;;;;;;32.10;22.80;;;20.80;54.40;;;;;;6218072;23;20227;-89
2021/06/07 02:55:17;;;;;;;23.50;20.87;;;20.70;54.90;;;;;;6218746;23;20464;-89
2021/06/07 03:05:04;;;;;;;22.97;19.13;;;20.80;54.60;;;;;;6219168;23;20340;-91
2021/06/07 03:10:56;;;;;;;23.70;20.50;;;20.90;54.30;;;;;;6217468;23;20365;-89
2021/06/07 03:16:44;;;;;;;25.03;22.27;;;20.90;54.00;;;;;;6217529;23;20387;-90
2021/06/07 03:22:32;;;;;;;23.87;20.30;;;21.00;53.90;;;;;;6216397;23;20164;-91
2021/06/07 03:28:21;;;;;;;24.60;21.27;;;21.10;53.70;;;;;;6217104;23;20415;-90
2021/06/07 03:34:08;;;;;;;24.07;21.03;;;21.00;53.60;;;;;;6220192;23;20315;-91
2021/06/07 03:37:18;;;;;;;22.57;18.57;;;21.00;53.70;;;;;;6193894;22;20385;-90
2021/06/07 03:39:43;;;;;;;23.37;18.93;;;21.00;53.50;;;;;;6191382;22;20157;-89
2021/06/07 03:42:10;;;;;;;23.80;19.87;;;21.10;54.20;;;;;;6191092;22;20378;-87
2021/06/07 03:44:36;;;;;;;21.37;19.03;;;21.10;53.30;;;;;;6190025;23;20154;-88
2021/06/07 03:47:02;;;;;;;23.60;20.50;;;21.10;53.00;;;;;;6193355;22;20400;-88
2021/06/07 03:49:28;;;;;;;31.67;26.30;;;21.10;52.90;;;;;;6191488;23;20239;-88
2021/06/07 03:51:54;;;;;;;29.80;24.00;;;21.00;52.70;;;;;;6190520;23;20360;-88
2021/06/07 03:54:19;;;;;;;32.57;25.00;;;20.80;53.70;;;;;;6190533;22;20161;-91
2021/06/07 03:56:45;;;;;;;26.23;23.43;;;20.80;54.20;;;;;;6189699;23;20397;-89
2021/06/07 03:59:14;;;;;;;35.50;26.10;;;20.70;55.30;;;;;;6189429;23;20151;-90
2021/06/07 04:01:41;;;;;;;22.10;19.77;;;20.50;54.50;;;;;;6184474;23;20199;-87
2021/06/07 04:04:14;;;;;;;28.07;22.47;;;20.80;54.40;;;;;;6184362;23;20414;-87
2021/06/07 04:06:39;;;;;;;31.57;26.43;;;20.80;54.20;;;;;;6184403;23;20498;-90
2021/06/07 04:09:06;;;;;;;28.00;22.00;;;20.90;54.40;;;;;;6186336;23;20889;-89
2021/06/07 04:11:32;;;;;;;29.33;22.90;;;20.90;54.30;;;;;;6188004;23;20153;-90
2021/06/07 04:13:57;;;;;;;30.73;24.33;;;20.90;54.30;;;;;;6188951;23;20450;-91
2021/06/07 04:19:45;;;;;;;30.77;23.23;;;20.60;54.10;;;;;;6186354;23;20191;-90
2021/06/07 04:25:34;;;;;;;24.63;21.73;;;20.90;54.60;;;;;;6188982;23;20343;-89
2021/06/07 04:31:21;;;;;;;30.30;23.23;;;20.90;54.10;;;;;;6187351;23;20313;-91
2021/06/07 04:37:09;;;;;;;27.13;20.80;;;20.90;54.40;;;;;;6188038;23;20138;-90
2021/06/07 04:42:58;;;;;;;22.93;20.47;;;20.90;54.20;;;;;;6187326;23;20139;-91
2021/06/07 04:48:46;;;;;;;26.33;21.93;;;21.10;53.70;;;;;;6188230;23;20417;-89
2021/06/07 04:51:31;;;;;;;26.93;24.03;;;21.10;53.40;;;;;;6196866;23;20366;-92
2021/06/07 04:53:57;;;;;;;28.80;24.00;;;21.00;53.30;;;;;;6187342;23;20187;-91
2021/06/07 04:56:22;;;;;;;27.27;23.27;;;21.00;53.90;;;;;;6187777;23;20333;-92
2021/06/07 04:58:48;;;;;;;27.10;23.63;;;21.00;53.90;;;;;;6195949;23;20151;-93
2021/06/07 05:01:58;;;;;;;25.30;22.53;;;20.90;53.90;;;;;;6186100;23;20574;-91
2021/06/07 05:04:23;;;;;;;27.60;23.80;;;20.70;53.50;;;;;;6187994;22;20155;-90
2021/06/07 05:06:49;;;;;;;27.77;23.37;;;20.90;53.60;;;;;;6186989;23;20425;-91
2021/06/07 05:09:15;;;;;;;25.47;21.40;;;20.70;54.30;;;;;;6186965;23;20186;-91
2021/06/07 05:11:41;;;;;;;28.07;22.40;;;20.80;54.70;;;;;;6193049;23;20385;-92
2021/06/07 05:14:26;;;;;;;25.17;21.60;;;20.70;54.70;;;;;;6188626;23;20135;-90
2021/06/07 05:16:52;;;;;;;28.90;22.83;;;20.80;54.40;;;;;;6199612;23;20374;-93
2021/06/07 05:19:26;;;;;;;26.33;23.30;;;20.90;54.20;;;;;;6190135;23;20381;-90
2021/06/07 05:21:52;;;;;;;28.10;21.13;;;20.90;53.60;;;;;;6186151;23;20170;-91
2021/06/07 05:24:18;;;;;;;23.63;21.13;;;21.00;53.60;;;;;;6185460;23;20390;-91
2021/06/07 05:26:56;;;;;;;25.03;22.33;;;21.00;53.60;;;;;;6184746;23;20617;-91
2021/06/07 05:29:21;;;;;;;25.60;20.97;;;21.00;53.40;;;;;;6184756;23;20186;-90
2021/06/07 05:31:47;;;;;;;23.63;20.33;;;21.10;53.60;;;;;;6185858;23;20473;-90
2021/06/07 05:34:16;;;;;;;23.93;20.30;;;21.10;53.20;;;;;;6189511;23;20147;-93
2021/06/07 05:36:43;;;;;;;29.50;24.77;;;20.80;52.60;;;;;;6186623;23;20211;-91
2021/06/07 05:39:09;;;;;;;24.40;20.90;;;20.80;52.20;;;;;;6187167;23;20443;-91
2021/06/07 05:41:35;;;;;;;27.47;21.13;;;20.90;52.80;;;;;;6186792;23;20163;-93
2021/06/07 05:44:01;;;;;;;23.03;19.17;;;21.10;52.70;;;;;;6190824;23;20211;-90
2021/06/07 05:46:34;;;;;;;25.20;22.60;;;21.10;52.90;;;;;;6186953;23;20390;-90
2021/06/07 05:48:59;;;;;;;28.60;23.27;;;20.90;52.80;;;;;;6183596;23;20214;-88
2021/06/07 05:51:26;;;;;;;21.87;19.50;;;21.00;53.60;;;;;;6181910;23;20382;-87
2021/06/07 05:53:52;;;;;;;23.87;21.13;;;20.80;53.90;;;;;;6181625;23;20582;-87
2021/06/07 05:56:18;;;;;;;24.37;20.37;;;20.80;53.80;;;;;;6181160;23;20436;-87
2021/06/07 05:58:43;;;;;;;20.30;18.10;;;20.50;53.90;;;;;;6182951;23;20139;-87
2021/06/07 06:01:09;;;;;;;25.20;22.63;;;20.60;53.80;;;;;;6181602;23;20294;-87
2021/06/07 06:03:35;;;;;;;21.00;18.73;;;20.70;53.50;;;;;;6182059;23;20693;-87
2021/06/07 06:06:00;;;;;;;21.13;18.93;;;20.80;53.70;;;;;;6157451;23;20178;-88
2021/06/07 06:08:26;;;;;;;28.20;22.87;;;20.80;53.60;;;;;;6182064;23;20277;-87
2021/06/07 06:10:52;;;;;;;20.70;18.50;;;21.00;53.70;;;;;;6182203;23;20154;-87
2021/06/07 06:13:18;;;;;;;25.57;21.20;;;20.90;54.00;;;;;;6180912;23;20151;-88
2021/06/07 06:15:44;;;;;;;22.70;20.17;;;20.80;53.80;;;;;;6181715;23;20421;-88
2021/06/07 06:18:09;;;;;;;22.83;18.50;;;20.80;53.90;;;;;;6181266;23;20155;-87
2021/06/07 06:20:35;;;;;;;20.73;18.43;;;20.80;54.00;;;;;;6180828;23;20159;-87
2021/06/07 06:23:01;;;;;;;19.57;17.50;;;20.70;53.90;;;;;;6181620;23;20158;-88
2021/06/07 06:25:28;;;;;;;20.10;17.20;;;20.80;53.90;;;;;;6183162;23;20359;-88
2021/06/07 06:27:55;;;;;;;22.30;20.00;;;20.90;53.70;;;;;;6181361;23;20390;-89
2021/06/07 06:30:24;;;;;;;20.53;18.43;;;20.90;53.60;;;;;;6183207;23;20420;-88
2021/06/07 06:32:53;;;;;;;19.60;17.70;;;20.90;53.40;;;;;;6182030;23;20382;-88
2021/06/07 06:35:19;;;;;;;18.77;16.87;;;21.00;53.50;;;;;;6182257;23;20378;-88
2021/06/07 06:37:47;;;;;;;17.03;15.23;;;21.10;53.70;;;;;;6182911;23;20385;-88
2021/06/07 06:40:23;;;;;;;20.17;16.23;;;21.10;53.30;;;;;;6183976;22;20152;-89
2021/06/07 06:42:53;;;;;;;17.50;15.80;;;21.20;53.20;;;;;;6181686;22;20712;-89
2021/06/07 06:45:22;;;;;;;23.30;20.10;;;21.20;52.90;;;;;;6181740;23;20449;-88
2021/06/07 06:47:56;;;;;;;19.90;17.50;;;21.10;53.10;;;;;;6181605;23;20370;-88
2021/06/07 06:50:23;;;;;;;21.80;19.60;;;21.00;53.10;;;;;;6181471;23;20386;-87
2021/06/07 06:52:49;;;;;;;20.33;18.23;;;21.00;53.60;;;;;;6181360;23;20422;-89
2021/06/07 06:55:15;;;;;;;21.20;18.90;;;20.80;54.60;;;;;;6182237;23;20379;-87
2021/06/07 06:57:43;;;;;;;18.47;16.67;;;20.60;54.60;;;;;;6183578;23;20708;-88
2021/06/07 07:00:10;;;;;;;19.30;17.30;;;20.70;55.00;;;;;;6182413;23;20374;-87
2021/06/07 07:02:36;;;;;;;18.00;15.00;;;20.70;55.10;;;;;;6181656;23;20430;-88
2021/06/07 07:05:04;;;;;;;19.73;17.07;;;20.90;55.10;;;;;;6181177;23;20747;-88
2021/06/07 07:07:29;;;;;;;18.00;16.20;;;20.80;54.50;;;;;;6179441;23;20163;-87
2021/06/07 07:09:55;;;;;;;18.33;16.43;;;21.10;54.70;;;;;;6181252;22;20499;-87
2021/06/07 07:12:24;;;;;;;16.47;14.83;;;21.20;54.30;;;;;;6181367;23;20148;-89
2021/06/07 07:14:50;;;;;;;14.33;12.93;;;21.10;54.50;;;;;;6181050;23;20507;-89
2021/06/07 07:17:16;;;;;;;16.97;15.27;;;21.20;54.50;;;;;;6182011;23;20747;-91
2021/06/07 07:19:44;;;;;;;15.47;13.77;;;21.30;54.10;;;;;;6182344;23;20448;-89
2021/06/07 07:22:10;;;;;;;16.57;14.73;;;21.40;53.50;;;;;;6181100;23;20458;-89
2021/06/07 07:24:36;;;;;;;16.63;14.70;;;21.50;53.30;;;;;;6181697;23;20390;-89
2021/06/07 07:27:03;;;;;;;18.30;16.40;;;21.50;52.60;;;;;;6182994;23;20414;-89
2021/06/07 07:29:32;;;;;;;17.30;15.57;;;21.50;52.50;;;;;;6181389;23;20618;-89
2021/06/07 07:31:58;;;;;;;15.13;13.60;;;21.50;52.80;;;;;;6183498;23;20447;-89
2021/06/07 07:34:23;;;;;;;16.97;15.20;;;21.30;52.30;;;;;;6181912;23;20398;-89
2021/06/07 07:36:49;;;;;;;13.70;12.53;;;21.60;52.40;;;;;;6184312;23;20147;-92
2021/06/07 07:39:15;;;;;;;13.03;11.83;;;21.40;52.50;;;;;;6184466;23;20147;-92
2021/06/07 07:41:40;;;;;;;14.60;13.10;;;21.20;52.60;;;;;;6185007;23;20149;-92
2021/06/07 07:44:06;;;;;;;13.13;11.83;;;21.60;52.70;;;;;;6184416;23;20189;-92
2021/06/07 07:46:32;;;;;;;13.03;11.67;;;21.70;52.50;;;;;;6184192;23;20609;-90
2021/06/07 07:49:02;;;;;;;12.73;11.53;;;21.80;52.00;;;;;;6184100;23;20228;-92
2021/06/07 07:53:53;;;;;;;12.70;10.50;;;21.80;51.20;;;;;;6186490;22;20853;-89
2021/06/07 07:56:21;;;;;;;12.87;11.50;;;21.70;51.10;;;;;;6187758;23;20199;-95
2021/06/07 07:58:48;;;;;;;11.07;9.97;;;21.20;51.10;;;;;;6191597;23;20214;-91
2021/06/07 08:01:14;;;;;;;11.20;10.20;;;21.70;51.70;;;;;;6191080;23;20361;-92
2021/06/07 08:03:40;;;;;;;10.33;9.40;;;21.50;51.20;;;;;;6187054;23;20155;-91
2021/06/07 08:06:08;;;;;;;10.97;9.97;;;21.90;51.40;;;;;;6188535;23;20157;-91
2021/06/07 08:08:52;;;;;;;9.00;8.10;;;22.00;51.30;;;;;;6192406;23;20187;-93
2021/06/07 08:11:55;;;;;;;10.50;9.60;;;22.10;51.20;;;;;;6187834;23;20382;-91
2021/06/07 08:14:20;;;;;;;10.77;9.77;;;22.10;50.90;;;;;;6186953;23;20438;-94
2021/06/07 08:16:49;;;;;;;12.50;11.30;;;22.10;50.50;;;;;;6190201;23;20828;-93
2021/06/07 08:22:37;;;;;;;14.13;11.43;;;22.00;50.80;;;;;;6217007;23;20387;-92
2021/06/07 08:25:23;;;;;;;13.50;12.13;;;21.90;51.70;;;;;;6190367;22;20370;-92
2021/06/07 08:27:49;;;;;;;10.10;9.20;;;21.90;51.60;;;;;;6189833;22;20234;-92
2021/06/07 08:30:17;;;;;;;10.73;9.73;;;22.00;51.50;;;;;;6190473;23;20432;-93
2021/06/07 08:32:45;;;;;;;10.33;9.30;;;22.10;51.50;;;;;;6188940;23;20852;-92
2021/06/07 08:35:11;;;;;;;9.90;9.00;;;22.20;51.50;;;;;;6190073;23;20374;-92
2021/06/07 08:37:38;;;;;;;10.60;9.60;;;22.30;51.20;;;;;;6188189;23;20902;-92
2021/06/07 08:40:09;;;;;;;9.40;8.50;;;22.40;51.00;;;;;;6188400;23;20455;-93
2021/06/07 08:42:38;;;;;;;11.67;10.67;;;22.50;50.50;;;;;;6188772;23;20360;-92
2021/06/07 08:45:32;;;;;;;10.00;9.10;;;22.50;50.30;;;;;;6189897;22;20401;-93
2021/06/07 08:47:58;;;;;;;11.30;10.20;;;22.50;50.70;;;;;;6189697;23;20356;-92
2021/06/07 08:50:27;;;;;;;9.23;8.40;;;22.60;50.60;;;;;;6190298;22;20393;-93
2021/06/07 08:53:29;;;;;;;9.50;8.60;;;22.70;50.50;;;;;;6189742;23;20367;-91
2021/06/07 08:55:55;;;;;;;8.97;8.20;;;22.80;50.40;;;;;;6191763;23;20348;-91
2021/06/07 08:58:21;;;;;;;8.10;7.40;;;22.90;49.80;;;;;;6190054;22;20385;-92
2021/06/07 09:00:47;;;;;;;8.93;8.13;;;23.00;49.90;;;;;;6188952;23;20894;-90
2021/06/07 09:03:15;;;;;;;8.80;8.00;;;22.90;49.20;;;;;;6189781;23;20552;-91
2021/06/07 09:05:43;;;;;;;9.80;9.00;;;23.20;48.80;;;;;;6189519;23;20577;-91
2021/06/07 09:08:25;;;;;;;8.80;8.00;;;23.10;48.10;;;;;;6189497;23;20529;-91
2021/06/07 09:10:53;;;;;;;7.97;7.27;;;23.20;47.80;;;;;;6189578;23;20387;-93
2021/06/07 09:13:21;;;;;;;8.73;8.03;;;23.20;48.10;;;;;;6243539;22;20726;-93
2021/06/07 09:16:03;;;;;;;9.67;8.87;;;23.10;48.10;;;;;;6315500;22;20382;-92
2021/06/07 09:18:37;;;;;;;9.00;8.17;;;23.10;48.00;;;;;;6316792;22;20825;-92
2021/06/07 09:21:04;;;;;;;7.33;6.70;;;23.10;48.70;;;;;;6316473;22;20376;-91
2021/06/07 09:23:55;;;;;;;9.03;8.20;;;23.20;48.90;;;;;;6315611;22;20379;-91
2021/06/07 09:26:26;;;;;;;7.30;6.67;;;23.20;48.60;;;;;;6316442;22;20428;-91
2021/06/07 09:29:02;;;;;;;7.03;6.43;;;23.20;48.20;;;;;;6315870;22;20471;-91
2021/06/07 09:38:04;;;;;;;9.63;8.60;;;23.40;48.10;;;;;;6247806;22;20399;-92
2021/06/07 09:40:44;;;;;;;8.07;7.30;;;23.50;47.80;;;;;;6224478;23;20343;-93
2021/06/07 09:43:10;;;;;;;8.03;7.23;;;23.40;47.80;;;;;;6222846;23;20380;-94
2021/06/07 09:48:43;;;;;;;8.07;7.30;;;23.50;47.60;;;;;;6246836;23;20673;-94
2021/06/07 09:51:08;;;;;;;8.57;7.70;;;23.60;47.60;;;;;;6221407;23;20355;-93
2021/06/07 09:53:56;;;;;;;9.43;8.60;;;23.60;47.50;;;;;;6222226;23;20430;-91
2021/06/07 09:56:23;;;;;;;8.23;7.50;;;23.50;47.40;;;;;;6223180;23;20514;-92
2021/06/07 09:58:50;;;;;;;8.10;7.30;;;23.40;47.80;;;;;;6223391;23;20810;-94
2021/06/07 10:05:08;;;;;;;8.03;7.33;;;23.40;47.90;;;;;;6264848;22;20849;-93
2021/06/07 10:07:33;;;;;;;10.17;9.27;;;23.40;47.90;;;;;;6320246;22;20355;-93
2021/06/07 10:10:23;;;;;;;7.53;6.93;;;23.40;47.90;;;;;;6315732;22;20384;-92
2021/06/07 10:13:34;;;;;;;8.77;7.90;;;23.40;48.00;;;;;;6314922;22;20192;-93
2021/06/07 10:16:10;;;;;;;7.20;6.60;;;23.40;48.30;;;;;;6314705;22;20378;-89
2021/06/07 10:18:36;;;;;;;7.17;6.57;;;23.40;48.40;;;;;;6315657;22;20377;-89
2021/06/07 10:21:04;;;;;;;7.33;6.73;;;23.50;48.40;;;;;;6319031;22;20467;-88
2021/06/07 10:23:34;;;;;;;6.80;6.20;;;23.60;48.00;;;;;;6345216;22;20337;-93
2021/06/07 10:26:29;;;;;;;8.80;7.90;;;23.60;48.10;;;;;;6315643;22;20357;-93
2021/06/07 10:28:56;;;;;;;8.45;7.75;;;23.70;47.80;;;;;;6315281;22;20386;-92
2021/06/07 10:31:27;;;;;;;9.03;8.33;;;23.80;47.50;;;;;;6319045;22;20140;-92
2021/06/07 10:33:58;;;;;;;7.43;6.87;;;23.70;47.30;;;;;;6315134;22;20374;-89
2021/06/07 10:36:31;;;;;;;6.10;5.60;;;23.80;47.80;;;;;;6316110;22;20374;-93
2021/06/07 10:39:22;;;;;;;7.77;7.17;;;23.90;48.00;;;;;;6324278;22;20430;-92
2021/06/07 10:42:19;;;;;;;6.93;6.33;;;24.00;47.90;;;;;;6321744;22;20356;-94
2021/06/07 10:48:12;;;;;;;9.20;8.40;;;24.10;47.10;;;;;;6344484;22;20147;-90
2021/06/07 10:50:44;;;;;;;7.73;6.00;;;24.20;46.00;;;;;;6316706;22;20356;-89
2021/06/07 10:53:31;;;;;;;7.23;6.60;;;24.10;46.20;;;;;;6315468;22;20345;-90
2021/06/07 10:56:08;;;;;;;6.33;5.73;;;23.80;46.90;;;;;;6314919;22;20348;-90
2021/06/07 10:58:35;;;;;;;5.23;4.83;;;23.70;46.50;;;;;;6315006;22;20360;-91
2021/06/07 11:01:02;;;;;;;6.03;5.43;;;23.80;46.60;;;;;;6315260;22;20394;-90
2021/06/07 11:03:33;;;;;;;6.23;5.73;;;23.80;47.60;;;;;;6315989;22;20348;-90
2021/06/07 11:06:04;;;;;;;6.03;5.57;;;23.80;47.80;;;;;;6315778;22;20363;-90
2021/06/07 11:08:37;;;;;;;5.40;5.00;;;23.90;47.40;;;;;;6315748;22;20427;-91
2021/06/07 11:11:13;;;;;;;6.77;6.27;;;24.00;46.40;;;;;;6315783;22;20366;-89
2021/06/07 11:13:54;;;;;;;7.10;6.50;;;23.90;46.40;;;;;;6315410;22;20400;-90
2021/06/07 11:16:35;;;;;;;5.57;5.07;;;23.80;46.50;;;;;;6315878;22;20373;-90
2021/06/07 11:19:03;;;;;;;6.20;5.70;;;23.80;46.60;;;;;;6315548;22;20438;-90
2021/06/07 11:21:34;;;;;;;6.90;6.40;;;23.60;47.00;;;;;;6315976;22;20690;-90
2021/06/07 11:24:01;;;;;;;7.33;6.70;;;23.70;47.90;;;;;;6316953;22;20417;-90
2021/06/07 11:26:41;;;;;;;6.80;6.20;;;23.60;47.20;;;;;;6315905;22;20357;-90
2021/06/07 11:29:14;;;;;;;8.90;8.10;;;23.70;47.10;;;;;;6316048;22;20428;-90
2021/06/07 11:31:48;;;;;;;7.30;6.60;;;23.60;46.80;;;;;;6316251;22;20341;-89
2021/06/07 11:34:18;;;;;;;9.00;7.90;;;23.70;47.30;;;;;;6316969;22;20374;-90
2021/06/07 11:36:49;;;;;;;9.27;8.40;;;23.70;47.40;;;;;;6316146;22;20349;-89
2021/06/07 11:39:20;;;;;;;8.00;7.20;;;23.60;47.70;;;;;;6315477;22;20443;-88
2021/06/07 11:42:01;;;;;;;8.80;7.90;;;23.50;48.30;;;;;;6315732;22;20415;-89
2021/06/07 11:44:56;;;;;;;6.73;6.20;;;23.40;48.40;;;;;;6315399;22;20439;-91
2021/06/07 11:47:25;;;;;;;8.00;7.30;;;23.50;48.40;;;;;;6316789;22;20409;-90
2021/06/07 11:49:57;;;;;;;6.90;6.30;;;23.60;48.10;;;;;;6317365;22;20909;-89
2021/06/07 11:52:32;;;;;;;10.40;9.27;;;23.70;48.00;;;;;;6316396;22;20366;-90
2021/06/07 11:55:34;;;;;;;10.17;9.27;;;23.80;47.10;;;;;;6316811;22;20430;-90
2021/06/07 11:58:09;;;;;;;7.80;7.10;;;23.60;47.90;;;;;;6344187;22;20435;-89
2021/06/07 12:00:41;;;;;;;7.63;6.93;;;23.60;48.70;;;;;;6315971;22;20377;-89
2021/06/07 12:03:12;;;;;;;9.20;8.30;;;23.60;48.90;;;;;;6316717;22;20365;-89
2021/06/07 12:05:40;;;;;;;9.00;8.20;;;23.60;47.80;;;;;;6316653;22;20427;-91
2021/06/07 12:08:08;;;;;;;7.20;6.60;;;23.60;48.20;;;;;;6343408;22;20363;-88
2021/06/07 12:10:36;;;;;;;9.33;8.53;;;23.60;48.30;;;;;;6316020;22;20644;-89
2021/06/07 12:13:21;;;;;;;7.57;6.80;;;23.70;48.20;;;;;;6316435;22;20454;-89
2021/06/07 12:15:56;;;;;;;9.03;8.23;;;23.80;47.60;;;;;;6315150;22;20370;-89
2021/06/07 12:18:49;;;;;;;10.97;9.93;;;23.80;47.20;;;;;;6315940;22;20377;-89
2021/06/07 12:21:17;;;;;;;9.40;8.03;;;23.90;46.80;;;;;;6310474;22;20480;-89
2021/06/07 12:24:07;;;;;;;10.23;9.30;;;23.90;47.30;;;;;;6315623;22;20427;-90
2021/06/07 12:29:19;;;;;;;10.20;9.07;;;23.70;47.70;;;;;;6345052;22;20480;-91
2021/06/07 12:32:00;;;;;;;10.87;9.40;;;23.70;48.40;;;;;;6317033;22;20352;-91
2021/06/07 12:34:26;;;;;;;10.67;9.80;;;23.80;48.50;;;;;;6316525;22;20150;-88
2021/06/07 12:36:51;;;;;;;13.07;11.93;;;23.60;47.90;;;;;;6315734;22;20352;-89
2021/06/07 12:39:18;;;;;;;10.90;10.00;;;23.70;48.30;;;;;;6317009;22;20148;-91
2021/06/07 12:41:45;;;;;;;10.23;9.37;;;23.60;48.80;;;;;;6343635;22;20128;-91
2021/06/07 12:44:50;;;;;;;12.80;11.57;;;23.70;49.50;;;;;;6343196;22;20721;-92
2021/06/07 12:47:25;;;;;;;14.77;13.30;;;23.80;49.30;;;;;;6316020;22;20344;-90
2021/06/07 12:49:50;;;;;;;14.40;13.17;;;23.70;48.70;;;;;;6315880;22;20500;-90
2021/06/07 12:52:18;;;;;;;14.40;13.27;;;23.20;48.00;;;;;;6315585;22;20337;-90
2021/06/07 12:54:46;;;;;;;13.53;12.43;;;23.60;48.60;;;;;;6315456;22;20218;-90
2021/06/07 12:57:17;;;;;;;12.47;11.37;;;23.50;49.10;;;;;;6315808;22;20769;-92
2021/06/07 12:59:43;;;;;;;12.97;11.77;;;23.90;49.80;;;;;;6314417;22;20348;-90
2021/06/07 13:02:31;;;;;;;14.10;13.00;;;23.40;49.30;;;;;;6315004;22;20355;-91
2021/06/07 13:05:02;;;;;;;12.73;11.73;;;23.30;50.10;;;;;;6316319;22;20172;-92
2021/06/07 13:07:29;;;;;;;18.00;12.93;;;23.20;50.20;;;;;;6315682;22;20390;-90
2021/06/07 13:09:56;;;;;;;11.57;10.47;;;23.20;50.10;;;;;;6315873;22;20792;-91
2021/06/07 13:12:25;;;;;;;14.30;13.20;;;23.30;50.00;;;;;;6312505;22;20352;-92
2021/06/07 13:14:55;;;;;;;14.03;12.83;;;23.30;49.70;;;;;;6317501;22;20888;-92
2021/06/07 13:17:24;;;;;;;10.63;9.67;;;23.30;50.10;;;;;;6317459;22;20882;-91
2021/06/07 13:19:58;;;;;;;13.37;12.30;;;23.40;50.20;;;;;;6317706;22;20352;-91
2021/06/07 13:26:16;;;;;;;12.77;11.67;;;23.40;49.50;;;;;;6251151;23;20394;-92
2021/06/07 13:38:57;;;;;;;11.97;10.87;;;24.20;48.50;;;;;;6250221;23;20405;-93
2021/06/07 13:41:23;;;;;;;10.17;9.27;;;24.60;47.40;;;;;;6224027;23;20927;-93
2021/06/07 13:43:55;;;;;;;9.97;9.17;;;24.90;47.20;;;;;;6223348;23;20372;-93
2021/06/07 13:46:25;;;;;;;11.27;10.37;;;25.00;46.50;;;;;;6223196;23;20153;-94
2021/06/07 13:48:51;;;;;;;10.13;9.10;;;25.30;45.70;;;;;;6223344;23;20395;-93
2021/06/07 13:51:32;;;;;;;11.50;10.60;;;25.40;45.20;;;;;;6223788;23;20397;-91
2021/06/07 13:54:11;;;;;;;10.90;10.00;;;25.60;43.90;;;;;;6223560;23;20369;-92
2021/06/07 13:56:40;;;;;;;11.67;10.70;;;25.70;43.50;;;;;;6284457;22;20357;-93
2021/06/07 13:59:18;;;;;;;13.77;12.50;;;25.70;43.00;;;;;;6317393;22;20376;-91
2021/06/07 14:01:43;;;;;;;13.10;12.00;;;25.60;43.10;;;;;;6316171;22;20345;-90
2021/06/07 14:04:22;;;;;;;10.40;9.50;;;25.60;43.50;;;;;;6316294;22;20383;-92
2021/06/07 14:06:50;;;;;;;13.00;12.00;;;25.60;43.80;;;;;;6314654;22;20166;-91
2021/06/07 14:09:18;;;;;;;12.70;11.70;;;25.60;43.60;;;;;;6316244;22;20737;-93
2021/06/07 14:11:44;;;;;;;10.60;9.70;;;25.50;43.90;;;;;;6317596;22;20340;-95
2021/06/07 14:14:11;;;;;;;11.23;10.30;;;25.60;43.90;;;;;;6314740;22;20411;-93
2021/06/07 14:19:59;;;;;;;14.57;13.10;;;25.60;43.20;;;;;;6342399;22;20162;-92
2021/06/07 14:25:17;;;;;;;10.93;10.13;;;25.20;44.20;;;;;;6342284;22;20681;-91
2021/06/07 14:27:43;;;;;;;15.10;13.80;;;25.40;43.80;;;;;;6314511;22;20156;-92
2021/06/07 14:30:10;;;;;;;12.67;11.67;;;25.20;43.70;;;;;;6315606;22;20167;-92
2021/06/07 14:32:38;;;;;;;11.33;10.43;;;24.80;45.10;;;;;;6316120;22;20378;-92
2021/06/07 14:35:05;;;;;;;12.50;11.40;;;24.60;45.00;;;;;;6316378;22;20374;-92
2021/06/07 14:40:56;;;;;;;14.73;13.40;;;24.30;45.90;;;;;;6343147;22;20351;-91
2021/06/07 14:43:23;;;;;;;14.70;13.23;;;24.10;46.50;;;;;;6315447;22;20373;-91
2021/06/07 14:45:56;;;;;;;13.20;12.07;;;23.70;47.60;;;;;;6315630;22;20376;-93
2021/06/07 14:48:23;;;;;;;14.13;12.70;;;23.70;48.20;;;;;;6315333;22;20457;-92
2021/06/07 14:50:48;;;;;;;12.57;11.47;;;23.50;48.70;;;;;;6316407;22;20340;-92
2021/06/07 14:56:39;;;;;;;14.60;13.20;;;23.50;49.40;;;;;;6344726;22;20135;-93
2021/06/07 14:59:06;;;;;;;15.80;14.40;;;23.50;49.80;;;;;;6318826;22;20378;-92
2021/06/07 15:01:31;;;;;;;16.33;14.73;;;23.20;49.70;;;;;;6317434;22;20349;-92
2021/06/07 15:07:19;;;;;;;13.57;12.13;;;23.30;50.10;;;;;;6344959;22;20166;-92
2021/06/07 15:13:09;;;;;;;16.13;14.63;;;23.50;50.30;;;;;;6297766;22;20190;-93
2021/06/07 15:15:35;;;;;;;13.57;12.47;;;23.60;49.20;;;;;;6289116;22;20360;-92
2021/06/07 15:24:45;;;;;;;12.57;11.57;;;24.10;48.40;;;;;;6185705;23;20134;-93